sensor_id;sensor_type;location;lat;lon;timestamp;P1;durP1;ratioP1;P2;durP2;ratioP2
30062;SDS011;16889;67.864;24.990;2022-07-10T00:00:28;0.68;;;0.65;;
30062;SDS011;16889;67.864;24.990;2022-07-10T00:05:15;2.63;;;0.70;;
30062;SDS011;16889;67.864;24.990;2022-07-10T00:10:02;3.83;;;0.77;;
30062;SDS011;16889;67.864;24.990;2022-07-10T00:14:49;0.93;;;0.80;;
30062;SDS011;16889;67.864;24.990;2022-07-10T00:19:35;0.60;;;0.60;;
30062;SDS011;16889;67.864;24.990;2022-07-10T00:24:21;0.93;;;0.70;;
30062;SDS011;16889;67.864;24.990;2022-07-10T00:29:07;0.70;;;0.50;;
30062;SDS011;16889;67.864;24.990;2022-07-10T00:33:53;0.65;;;0.65;;
30062;SDS011;16889;67.864;24.990;2022-07-10T00:38:40;0.95;;;0.63;;
30062;SDS011;16889;67.864;24.990;2022-07-10T00:43:26;1.05;;;0.77;;
30062;SDS011;16889;67.864;24.990;2022-07-10T00:48:12;0.75;;;0.70;;
30062;SDS011;16889;67.864;24.990;2022-07-10T00:52:58;1.02;;;0.80;;
30062;SDS011;16889;67.864;24.990;2022-07-10T00:57:44;0.73;;;0.68;;
30062;SDS011;16889;67.864;24.990;2022-07-10T01:02:31;1.17;;;0.65;;
30062;SDS011;16889;67.864;24.990;2022-07-10T01:07:17;1.65;;;0.77;;
30062;SDS011;16889;67.864;24.990;2022-07-10T01:12:03;0.90;;;0.80;;
30062;SDS011;16889;67.864;24.990;2022-07-10T01:16:50;0.98;;;0.75;;
30062;SDS011;16889;67.864;24.990;2022-07-10T01:21:37;0.60;;;0.60;;
30062;SDS011;16889;67.864;24.990;2022-07-10T01:26:23;0.80;;;0.70;;
30062;SDS011;16889;67.864;24.990;2022-07-10T01:31:09;0.80;;;0.60;;
30062;SDS011;16889;67.864;24.990;2022-07-10T01:35:55;1.13;;;0.50;;
30062;SDS011;16889;67.864;24.990;2022-07-10T01:40:41;4.15;;;1.00;;
30062;SDS011;16889;67.864;24.990;2022-07-10T01:45:27;0.70;;;0.70;;
30062;SDS011;16889;67.864;24.990;2022-07-10T01:50:13;1.70;;;0.73;;
30062;SDS011;16889;67.864;24.990;2022-07-10T01:54:59;2.83;;;0.80;;
30062;SDS011;16889;67.864;24.990;2022-07-10T01:59:45;1.38;;;0.80;;
30062;SDS011;16889;67.864;24.990;2022-07-10T02:04:31;1.38;;;0.93;;
30062;SDS011;16889;67.864;24.990;2022-07-10T02:09:28;0.80;;;0.65;;
30062;SDS011;16889;67.864;24.990;2022-07-10T02:14:14;1.23;;;0.77;;
30062;SDS011;16889;67.864;24.990;2022-07-10T02:19:00;2.63;;;0.80;;
30062;SDS011;16889;67.864;24.990;2022-07-10T02:23:46;0.88;;;0.70;;
30062;SDS011;16889;67.864;24.990;2022-07-10T02:28:32;0.80;;;0.80;;
30062;SDS011;16889;67.864;24.990;2022-07-10T02:33:18;4.68;;;0.70;;
30062;SDS011;16889;67.864;24.990;2022-07-10T02:38:06;3.22;;;0.77;;
30062;SDS011;16889;67.864;24.990;2022-07-10T02:42:52;1.00;;;0.80;;
30062;SDS011;16889;67.864;24.990;2022-07-10T02:47:38;1.10;;;0.93;;
30062;SDS011;16889;67.864;24.990;2022-07-10T02:52:24;1.70;;;0.85;;
30062;SDS011;16889;67.864;24.990;2022-07-10T02:57:10;4.50;;;0.90;;
30062;SDS011;16889;67.864;24.990;2022-07-10T03:01:56;0.75;;;0.70;;
30062;SDS011;16889;67.864;24.990;2022-07-10T03:06:42;2.47;;;0.90;;
30062;SDS011;16889;67.864;24.990;2022-07-10T03:11:28;4.38;;;0.93;;
30062;SDS011;16889;67.864;24.990;2022-07-10T03:16:14;0.73;;;0.73;;
30062;SDS011;16889;67.864;24.990;2022-07-10T03:21:00;1.25;;;0.80;;
30062;SDS011;16889;67.864;24.990;2022-07-10T03:25:46;0.80;;;0.80;;
30062;SDS011;16889;67.864;24.990;2022-07-10T03:30:32;0.70;;;0.70;;
30062;SDS011;16889;67.864;24.990;2022-07-10T03:35:18;0.82;;;0.77;;
30062;SDS011;16889;67.864;24.990;2022-07-10T03:40:04;1.17;;;0.60;;
30062;SDS011;16889;67.864;24.990;2022-07-10T03:44:51;1.45;;;0.80;;
30062;SDS011;16889;67.864;24.990;2022-07-10T03:49:37;1.60;;;0.80;;
30062;SDS011;16889;67.864;24.990;2022-07-10T03:54:26;0.65;;;0.65;;
30062;SDS011;16889;67.864;24.990;2022-07-10T03:59:13;1.33;;;0.80;;
30062;SDS011;16889;67.864;24.990;2022-07-10T04:03:59;1.35;;;0.70;;
30062;SDS011;16889;67.864;24.990;2022-07-10T04:08:45;0.93;;;0.70;;
30062;SDS011;16889;67.864;24.990;2022-07-10T04:13:31;0.90;;;0.70;;
30062;SDS011;16889;67.864;24.990;2022-07-10T04:18:17;2.92;;;0.73;;
30062;SDS011;16889;67.864;24.990;2022-07-10T04:23:03;1.13;;;0.70;;
30062;SDS011;16889;67.864;24.990;2022-07-10T04:27:49;0.50;;;0.50;;
30062;SDS011;16889;67.864;24.990;2022-07-10T04:32:35;4.68;;;0.60;;
30062;SDS011;16889;67.864;24.990;2022-07-10T04:37:22;2.70;;;0.60;;
30062;SDS011;16889;67.864;24.990;2022-07-10T04:42:09;0.57;;;0.57;;
30062;SDS011;16889;67.864;24.990;2022-07-10T04:46:55;0.70;;;0.55;;
30062;SDS011;16889;67.864;24.990;2022-07-10T04:51:41;1.85;;;0.60;;
30062;SDS011;16889;67.864;24.990;2022-07-10T04:56:27;2.63;;;0.60;;
30062;SDS011;16889;67.864;24.990;2022-07-10T05:01:13;0.50;;;0.50;;
30062;SDS011;16889;67.864;24.990;2022-07-10T05:05:59;0.60;;;0.60;;
30062;SDS011;16889;67.864;24.990;2022-07-10T05:10:45;1.45;;;0.60;;
30062;SDS011;16889;67.864;24.990;2022-07-10T05:15:31;3.25;;;0.60;;
30062;SDS011;16889;67.864;24.990;2022-07-10T05:20:17;1.50;;;0.50;;
30062;SDS011;16889;67.864;24.990;2022-07-10T05:25:03;0.70;;;0.60;;
30062;SDS011;16889;67.864;24.990;2022-07-10T05:29:49;2.42;;;0.50;;
30062;SDS011;16889;67.864;24.990;2022-07-10T05:34:35;4.10;;;0.80;;
30062;SDS011;16889;67.864;24.990;2022-07-10T05:39:21;1.42;;;0.70;;
30062;SDS011;16889;67.864;24.990;2022-07-10T05:44:11;0.93;;;0.50;;
30062;SDS011;16889;67.864;24.990;2022-07-10T05:48:58;0.73;;;0.45;;
30062;SDS011;16889;67.864;24.990;2022-07-10T05:53:44;4.50;;;0.70;;
30062;SDS011;16889;67.864;24.990;2022-07-10T05:58:30;0.60;;;0.50;;
30062;SDS011;16889;67.864;24.990;2022-07-10T06:03:15;2.28;;;0.70;;
30062;SDS011;16889;67.864;24.990;2022-07-10T06:08:02;0.63;;;0.50;;
30062;SDS011;16889;67.864;24.990;2022-07-10T06:12:48;1.05;;;0.70;;
30062;SDS011;16889;67.864;24.990;2022-07-10T06:17:34;3.35;;;0.40;;
30062;SDS011;16889;67.864;24.990;2022-07-10T06:22:20;2.15;;;0.40;;
30062;SDS011;16889;67.864;24.990;2022-07-10T06:27:18;1.10;;;0.60;;
30062;SDS011;16889;67.864;24.990;2022-07-10T06:32:04;1.30;;;0.40;;
30062;SDS011;16889;67.864;24.990;2022-07-10T06:36:51;1.75;;;0.50;;
30062;SDS011;16889;67.864;24.990;2022-07-10T06:41:37;7.38;;;0.40;;
30062;SDS011;16889;67.864;24.990;2022-07-10T06:46:24;3.70;;;0.70;;
30062;SDS011;16889;67.864;24.990;2022-07-10T06:51:10;0.65;;;0.40;;
30062;SDS011;16889;67.864;24.990;2022-07-10T06:55:56;2.60;;;0.40;;
30062;SDS011;16889;67.864;24.990;2022-07-10T07:00:42;1.77;;;0.40;;
30062;SDS011;16889;67.864;24.990;2022-07-10T07:05:28;4.90;;;0.77;;
30062;SDS011;16889;67.864;24.990;2022-07-10T07:10:14;1.58;;;0.40;;
30062;SDS011;16889;67.864;24.990;2022-07-10T07:15:00;0.90;;;0.50;;
30062;SDS011;16889;67.864;24.990;2022-07-10T07:19:46;2.95;;;0.60;;
30062;SDS011;16889;67.864;24.990;2022-07-10T07:24:50;0.40;;;0.40;;
30062;SDS011;16889;67.864;24.990;2022-07-10T07:29:36;0.88;;;0.50;;
30062;SDS011;16889;67.864;24.990;2022-07-10T07:34:23;1.48;;;0.63;;
30062;SDS011;16889;67.864;24.990;2022-07-10T07:39:09;1.02;;;0.40;;
30062;SDS011;16889;67.864;24.990;2022-07-10T07:43:55;0.80;;;0.50;;
30062;SDS011;16889;67.864;24.990;2022-07-10T07:48:41;0.70;;;0.60;;
30062;SDS011;16889;67.864;24.990;2022-07-10T07:53:27;0.90;;;0.60;;
30062;SDS011;16889;67.864;24.990;2022-07-10T07:58:13;1.13;;;0.77;;
30062;SDS011;16889;67.864;24.990;2022-07-10T08:02:59;1.80;;;0.70;;
30062;SDS011;16889;67.864;24.990;2022-07-10T08:07:46;1.30;;;0.80;;
30062;SDS011;16889;67.864;24.990;2022-07-10T08:12:34;1.92;;;0.77;;
30062;SDS011;16889;67.864;24.990;2022-07-10T08:17:20;1.50;;;0.70;;
30062;SDS011;16889;67.864;24.990;2022-07-10T08:22:06;2.15;;;0.80;;
30062;SDS011;16889;67.864;24.990;2022-07-10T08:26:52;0.98;;;0.70;;
30062;SDS011;16889;67.864;24.990;2022-07-10T08:31:40;2.70;;;0.70;;
30062;SDS011;16889;67.864;24.990;2022-07-10T08:36:26;1.77;;;0.80;;
30062;SDS011;16889;67.864;24.990;2022-07-10T08:41:12;3.40;;;0.68;;
30062;SDS011;16889;67.864;24.990;2022-07-10T08:45:58;1.02;;;0.73;;
30062;SDS011;16889;67.864;24.990;2022-07-10T08:50:45;0.90;;;0.80;;
30062;SDS011;16889;67.864;24.990;2022-07-10T08:55:33;2.33;;;0.70;;
30062;SDS011;16889;67.864;24.990;2022-07-10T09:00:21;2.00;;;0.80;;
30062;SDS011;16889;67.864;24.990;2022-07-10T09:05:08;6.50;;;0.73;;
30062;SDS011;16889;67.864;24.990;2022-07-10T09:09:54;2.42;;;0.60;;
30062;SDS011;16889;67.864;24.990;2022-07-10T09:14:43;1.45;;;0.40;;
30062;SDS011;16889;67.864;24.990;2022-07-10T09:19:29;1.80;;;0.60;;
30062;SDS011;16889;67.864;24.990;2022-07-10T09:24:15;0.63;;;0.50;;
30062;SDS011;16889;67.864;24.990;2022-07-10T09:29:09;2.88;;;0.60;;
30062;SDS011;16889;67.864;24.990;2022-07-10T09:33:56;3.63;;;0.80;;
30062;SDS011;16889;67.864;24.990;2022-07-10T09:43:44;3.80;;;1.10;;
30062;SDS011;16889;67.864;24.990;2022-07-10T09:48:34;3.72;;;1.20;;
30062;SDS011;16889;67.864;24.990;2022-07-10T09:53:20;2.25;;;1.27;;
30062;SDS011;16889;67.864;24.990;2022-07-10T09:58:08;1.67;;;1.23;;
30062;SDS011;16889;67.864;24.990;2022-07-10T10:02:56;1.67;;;1.10;;
30062;SDS011;16889;67.864;24.990;2022-07-10T10:07:43;0.82;;;0.82;;
30062;SDS011;16889;67.864;24.990;2022-07-10T10:12:31;0.90;;;0.90;;
30062;SDS011;16889;67.864;24.990;2022-07-10T10:17:42;1.30;;;1.20;;
30062;SDS011;16889;67.864;24.990;2022-07-10T10:22:30;2.10;;;1.17;;
30062;SDS011;16889;67.864;24.990;2022-07-10T10:27:19;1.42;;;0.95;;
30062;SDS011;16889;67.864;24.990;2022-07-10T10:32:07;3.90;;;1.08;;
30062;SDS011;16889;67.864;24.990;2022-07-10T10:36:54;1.20;;;1.00;;
30062;SDS011;16889;67.864;24.990;2022-07-10T10:41:42;2.77;;;1.30;;
30062;SDS011;16889;67.864;24.990;2022-07-10T11:13:03;1.30;;;1.00;;
30062;SDS011;16889;67.864;24.990;2022-07-10T11:17:50;2.25;;;1.15;;
30062;SDS011;16889;67.864;24.990;2022-07-10T11:22:47;3.00;;;1.10;;
30062;SDS011;16889;67.864;24.990;2022-07-10T11:28:02;4.03;;;1.08;;
30062;SDS011;16889;67.864;24.990;2022-07-10T11:32:54;1.00;;;0.90;;
30062;SDS011;16889;67.864;24.990;2022-07-10T11:37:50;2.53;;;1.08;;
30062;SDS011;16889;67.864;24.990;2022-07-10T11:42:55;1.58;;;1.10;;
30062;SDS011;16889;67.864;24.990;2022-07-10T11:47:43;1.95;;;1.02;;
30062;SDS011;16889;67.864;24.990;2022-07-10T11:52:29;1.10;;;1.00;;
30062;SDS011;16889;67.864;24.990;2022-07-10T11:57:21;1.27;;;1.17;;
30062;SDS011;16889;67.864;24.990;2022-07-10T12:02:07;1.40;;;1.30;;
30062;SDS011;16889;67.864;24.990;2022-07-10T12:06:53;5.32;;;1.30;;
30062;SDS011;16889;67.864;24.990;2022-07-10T12:11:41;1.23;;;1.00;;
30062;SDS011;16889;67.864;24.990;2022-07-10T12:16:29;5.55;;;1.23;;
30062;SDS011;16889;67.864;24.990;2022-07-10T12:21:21;5.45;;;1.25;;
30062;SDS011;16889;67.864;24.990;2022-07-10T12:26:08;1.08;;;0.88;;
30062;SDS011;16889;67.864;24.990;2022-07-10T12:35:59;2.53;;;0.88;;
30062;SDS011;16889;67.864;24.990;2022-07-10T12:40:45;1.77;;;1.00;;
30062;SDS011;16889;67.864;24.990;2022-07-10T12:45:31;6.82;;;0.90;;
30062;SDS011;16889;67.864;24.990;2022-07-10T12:50:18;1.60;;;1.00;;
30062;SDS011;16889;67.864;24.990;2022-07-10T12:55:14;2.85;;;1.00;;
30062;SDS011;16889;67.864;24.990;2022-07-10T13:00:06;2.85;;;1.08;;
30062;SDS011;16889;67.864;24.990;2022-07-10T13:04:58;1.25;;;0.80;;
30062;SDS011;16889;67.864;24.990;2022-07-10T13:09:44;1.30;;;0.70;;
30062;SDS011;16889;67.864;24.990;2022-07-10T13:14:32;1.25;;;0.90;;
30062;SDS011;16889;67.864;24.990;2022-07-10T13:19:18;1.52;;;0.88;;
30062;SDS011;16889;67.864;24.990;2022-07-10T13:24:04;0.95;;;0.80;;
30062;SDS011;16889;67.864;24.990;2022-07-10T13:28:51;1.80;;;0.75;;
30062;SDS011;16889;67.864;24.990;2022-07-10T13:33:37;1.48;;;0.88;;
30062;SDS011;16889;67.864;24.990;2022-07-10T13:38:23;1.83;;;0.80;;
30062;SDS011;16889;67.864;24.990;2022-07-10T13:43:10;1.37;;;0.90;;
30062;SDS011;16889;67.864;24.990;2022-07-10T13:47:57;0.70;;;0.70;;
30062;SDS011;16889;67.864;24.990;2022-07-10T13:52:44;0.70;;;0.70;;
30062;SDS011;16889;67.864;24.990;2022-07-10T13:57:30;0.85;;;0.80;;
30062;SDS011;16889;67.864;24.990;2022-07-10T14:02:16;2.05;;;1.00;;
30062;SDS011;16889;67.864;24.990;2022-07-10T14:07:02;0.90;;;0.90;;
30062;SDS011;16889;67.864;24.990;2022-07-10T14:11:48;2.78;;;1.02;;
30062;SDS011;16889;67.864;24.990;2022-07-10T14:16:34;1.70;;;1.08;;
30062;SDS011;16889;67.864;24.990;2022-07-10T14:21:20;1.02;;;0.93;;
30062;SDS011;16889;67.864;24.990;2022-07-10T14:26:10;2.25;;;1.02;;
30062;SDS011;16889;67.864;24.990;2022-07-10T14:30:58;3.70;;;0.90;;
30062;SDS011;16889;67.864;24.990;2022-07-10T14:35:45;0.90;;;0.90;;
30062;SDS011;16889;67.864;24.990;2022-07-10T14:40:31;0.90;;;0.90;;
30062;SDS011;16889;67.864;24.990;2022-07-10T14:45:17;1.17;;;1.00;;
30062;SDS011;16889;67.864;24.990;2022-07-10T14:50:04;1.88;;;0.80;;
30062;SDS011;16889;67.864;24.990;2022-07-10T14:54:50;2.50;;;1.00;;
30062;SDS011;16889;67.864;24.990;2022-07-10T14:59:36;1.83;;;0.80;;
30062;SDS011;16889;67.864;24.990;2022-07-10T15:04:22;1.02;;;1.02;;
30062;SDS011;16889;67.864;24.990;2022-07-10T15:09:08;1.55;;;1.08;;
30062;SDS011;16889;67.864;24.990;2022-07-10T15:13:54;3.42;;;0.90;;
30062;SDS011;16889;67.864;24.990;2022-07-10T15:18:49;1.05;;;0.90;;
30062;SDS011;16889;67.864;24.990;2022-07-10T15:23:35;1.20;;;1.10;;
30062;SDS011;16889;67.864;24.990;2022-07-10T15:28:21;0.82;;;0.82;;
30062;SDS011;16889;67.864;24.990;2022-07-10T15:33:07;1.30;;;1.05;;
30062;SDS011;16889;67.864;24.990;2022-07-10T15:37:53;1.33;;;1.10;;
30062;SDS011;16889;67.864;24.990;2022-07-10T15:42:40;1.60;;;0.85;;
30062;SDS011;16889;67.864;24.990;2022-07-10T15:47:26;2.15;;;1.05;;
30062;SDS011;16889;67.864;24.990;2022-07-10T15:52:12;1.33;;;1.00;;
30062;SDS011;16889;67.864;24.990;2022-07-10T15:56:58;10.02;;;0.95;;
30062;SDS011;16889;67.864;24.990;2022-07-10T16:01:44;2.15;;;0.90;;
30062;SDS011;16889;67.864;24.990;2022-07-10T16:06:30;3.95;;;1.00;;
30062;SDS011;16889;67.864;24.990;2022-07-10T16:11:16;1.10;;;1.00;;
30062;SDS011;16889;67.864;24.990;2022-07-10T16:16:03;4.20;;;0.90;;
30062;SDS011;16889;67.864;24.990;2022-07-10T16:20:49;1.40;;;1.10;;
30062;SDS011;16889;67.864;24.990;2022-07-10T16:25:35;1.13;;;0.93;;
30062;SDS011;16889;67.864;24.990;2022-07-10T16:30:39;1.50;;;1.10;;
30062;SDS011;16889;67.864;24.990;2022-07-10T16:35:25;1.88;;;1.02;;
30062;SDS011;16889;67.864;24.990;2022-07-10T16:40:12;0.80;;;0.80;;
30062;SDS011;16889;67.864;24.990;2022-07-10T16:44:58;1.77;;;0.90;;
30062;SDS011;16889;67.864;24.990;2022-07-10T16:49:44;1.75;;;1.05;;
30062;SDS011;16889;67.864;24.990;2022-07-10T16:54:30;1.67;;;0.80;;
30062;SDS011;16889;67.864;24.990;2022-07-10T16:59:16;1.38;;;0.90;;
30062;SDS011;16889;67.864;24.990;2022-07-10T17:04:02;1.80;;;1.02;;
30062;SDS011;16889;67.864;24.990;2022-07-10T17:08:48;0.90;;;0.80;;
30062;SDS011;16889;67.864;24.990;2022-07-10T17:13:34;0.80;;;0.80;;
30062;SDS011;16889;67.864;24.990;2022-07-10T17:18:20;0.60;;;0.60;;
30062;SDS011;16889;67.864;24.990;2022-07-10T17:23:07;1.17;;;1.00;;
30062;SDS011;16889;67.864;24.990;2022-07-10T17:27:54;1.30;;;0.90;;
30062;SDS011;16889;67.864;24.990;2022-07-10T17:32:41;1.00;;;0.90;;
30062;SDS011;16889;67.864;24.990;2022-07-10T17:37:27;1.38;;;1.10;;
30062;SDS011;16889;67.864;24.990;2022-07-10T17:42:14;2.35;;;1.10;;
30062;SDS011;16889;67.864;24.990;2022-07-10T17:47:00;1.65;;;1.02;;
30062;SDS011;16889;67.864;24.990;2022-07-10T17:51:46;1.70;;;1.13;;
30062;SDS011;16889;67.864;24.990;2022-07-10T17:56:32;1.63;;;1.00;;
30062;SDS011;16889;67.864;24.990;2022-07-10T18:01:18;1.20;;;1.10;;
30062;SDS011;16889;67.864;24.990;2022-07-10T18:06:04;1.98;;;1.25;;
30062;SDS011;16889;67.864;24.990;2022-07-10T18:10:51;1.63;;;1.27;;
30062;SDS011;16889;67.864;24.990;2022-07-10T18:15:37;1.95;;;1.23;;
30062;SDS011;16889;67.864;24.990;2022-07-10T18:20:23;4.55;;;1.52;;
30062;SDS011;16889;67.864;24.990;2022-07-10T18:25:09;3.10;;;1.38;;
30062;SDS011;16889;67.864;24.990;2022-07-10T18:29:55;2.58;;;1.63;;
30062;SDS011;16889;67.864;24.990;2022-07-10T18:34:42;1.75;;;1.42;;
30062;SDS011;16889;67.864;24.990;2022-07-10T18:39:28;3.30;;;1.52;;
30062;SDS011;16889;67.864;24.990;2022-07-10T18:44:15;1.60;;;1.40;;
30062;SDS011;16889;67.864;24.990;2022-07-10T18:49:01;5.20;;;2.00;;
30062;SDS011;16889;67.864;24.990;2022-07-10T18:53:47;2.58;;;1.50;;
30062;SDS011;16889;67.864;24.990;2022-07-10T18:58:33;4.93;;;1.73;;
30062;SDS011;16889;67.864;24.990;2022-07-10T19:03:19;2.33;;;1.75;;
30062;SDS011;16889;67.864;24.990;2022-07-10T19:08:05;3.80;;;1.67;;
30062;SDS011;16889;67.864;24.990;2022-07-10T19:12:51;3.05;;;1.60;;
30062;SDS011;16889;67.864;24.990;2022-07-10T19:17:37;2.80;;;1.80;;
30062;SDS011;16889;67.864;24.990;2022-07-10T19:22:23;4.15;;;1.80;;
30062;SDS011;16889;67.864;24.990;2022-07-10T19:27:11;3.23;;;1.53;;
30062;SDS011;16889;67.864;24.990;2022-07-10T19:31:57;3.90;;;1.60;;
30062;SDS011;16889;67.864;24.990;2022-07-10T19:36:43;1.90;;;1.70;;
30062;SDS011;16889;67.864;24.990;2022-07-10T19:41:29;2.25;;;1.60;;
30062;SDS011;16889;67.864;24.990;2022-07-10T19:46:15;3.53;;;1.73;;
30062;SDS011;16889;67.864;24.990;2022-07-10T19:51:01;2.55;;;1.60;;
30062;SDS011;16889;67.864;24.990;2022-07-10T19:55:48;2.08;;;1.50;;
30062;SDS011;16889;67.864;24.990;2022-07-10T20:00:34;4.80;;;1.45;;
30062;SDS011;16889;67.864;24.990;2022-07-10T20:05:20;1.95;;;1.52;;
30062;SDS011;16889;67.864;24.990;2022-07-10T20:10:06;1.90;;;1.55;;
30062;SDS011;16889;67.864;24.990;2022-07-10T20:14:53;3.95;;;1.85;;
30062;SDS011;16889;67.864;24.990;2022-07-10T20:19:39;1.60;;;1.45;;
30062;SDS011;16889;67.864;24.990;2022-07-10T20:24:25;3.45;;;1.60;;
30062;SDS011;16889;67.864;24.990;2022-07-10T20:29:12;4.65;;;1.52;;
30062;SDS011;16889;67.864;24.990;2022-07-10T20:33:58;1.95;;;1.60;;
30062;SDS011;16889;67.864;24.990;2022-07-10T20:38:44;5.43;;;1.67;;
30062;SDS011;16889;67.864;24.990;2022-07-10T20:43:30;2.28;;;1.75;;
30062;SDS011;16889;67.864;24.990;2022-07-10T20:48:16;4.07;;;1.80;;
30062;SDS011;16889;67.864;24.990;2022-07-10T20:53:02;5.57;;;1.95;;
30062;SDS011;16889;67.864;24.990;2022-07-10T20:57:48;2.75;;;1.90;;
30062;SDS011;16889;67.864;24.990;2022-07-10T21:02:34;5.68;;;2.00;;
30062;SDS011;16889;67.864;24.990;2022-07-10T21:07:20;3.90;;;1.98;;
30062;SDS011;16889;67.864;24.990;2022-07-10T21:12:07;3.75;;;1.95;;
30062;SDS011;16889;67.864;24.990;2022-07-10T21:16:53;7.10;;;2.53;;
30062;SDS011;16889;67.864;24.990;2022-07-10T21:21:40;5.38;;;2.60;;
30062;SDS011;16889;67.864;24.990;2022-07-10T21:26:26;5.25;;;2.20;;
30062;SDS011;16889;67.864;24.990;2022-07-10T21:31:12;5.45;;;2.72;;
30062;SDS011;16889;67.864;24.990;2022-07-10T21:35:58;3.30;;;2.30;;
30062;SDS011;16889;67.864;24.990;2022-07-10T21:40:44;3.83;;;2.75;;
30062;SDS011;16889;67.864;24.990;2022-07-10T21:45:30;4.05;;;2.60;;
30062;SDS011;16889;67.864;24.990;2022-07-10T21:50:18;2.67;;;2.47;;
30062;SDS011;16889;67.864;24.990;2022-07-10T21:55:04;5.82;;;2.50;;
30062;SDS011;16889;67.864;24.990;2022-07-10T21:59:51;3.45;;;2.42;;
30062;SDS011;16889;67.864;24.990;2022-07-10T22:04:37;7.13;;;2.90;;
30062;SDS011;16889;67.864;24.990;2022-07-10T22:09:23;6.57;;;2.28;;
30062;SDS011;16889;67.864;24.990;2022-07-10T22:14:09;3.63;;;2.50;;
30062;SDS011;16889;67.864;24.990;2022-07-10T22:18:55;5.03;;;2.50;;
30062;SDS011;16889;67.864;24.990;2022-07-10T22:23:41;3.97;;;2.50;;
30062;SDS011;16889;67.864;24.990;2022-07-10T22:28:27;4.38;;;2.40;;
30062;SDS011;16889;67.864;24.990;2022-07-10T22:33:13;3.25;;;2.70;;
30062;SDS011;16889;67.864;24.990;2022-07-10T22:38:02;5.53;;;3.15;;
30062;SDS011;16889;67.864;24.990;2022-07-10T22:42:48;3.55;;;2.80;;
30062;SDS011;16889;67.864;24.990;2022-07-10T22:47:34;2.92;;;2.63;;
30062;SDS011;16889;67.864;24.990;2022-07-10T22:52:20;2.70;;;2.50;;
30062;SDS011;16889;67.864;24.990;2022-07-10T22:57:06;3.53;;;2.83;;
30062;SDS011;16889;67.864;24.990;2022-07-10T23:01:52;3.92;;;2.92;;
30062;SDS011;16889;67.864;24.990;2022-07-10T23:06:38;6.03;;;3.08;;
30062;SDS011;16889;67.864;24.990;2022-07-10T23:11:24;9.57;;;2.95;;
30062;SDS011;16889;67.864;24.990;2022-07-10T23:16:10;4.93;;;3.25;;
30062;SDS011;16889;67.864;24.990;2022-07-10T23:20:56;3.38;;;3.05;;
30062;SDS011;16889;67.864;24.990;2022-07-10T23:25:42;3.90;;;3.25;;
30062;SDS011;16889;67.864;24.990;2022-07-10T23:30:28;9.15;;;4.10;;
30062;SDS011;16889;67.864;24.990;2022-07-10T23:35:15;3.75;;;3.35;;
30062;SDS011;16889;67.864;24.990;2022-07-10T23:40:01;4.93;;;3.67;;
30062;SDS011;16889;67.864;24.990;2022-07-10T23:44:48;4.30;;;3.90;;
30062;SDS011;16889;67.864;24.990;2022-07-10T23:49:34;5.93;;;4.10;;
30062;SDS011;16889;67.864;24.990;2022-07-10T23:54:39;4.82;;;3.90;;
30062;SDS011;16889;67.864;24.990;2022-07-10T23:59:29;5.93;;;4.03;;
